In Rescue
 
Open Full Screen Window  High Contrast Mode
July 24, 2024 5:04 PM CDT
Weather Information
Wind Direction
  ---
Wind Speed
  00 kt (0 mph)
Wind Gust
  00 kt (0 mph)
Altimeter
30.20 in
Visibility
10 SM
Temperature
24° C
75° F
Dewpoint
11° C
52° F
Humidity
44%
1hr Rain Fall
00.00 in.
24hr Rain Fall
00.03 in.
Sky Condition
Clear
VFR

METAR KAIT 242204Z AUTO 00000KT 10SM CLR 24/11 A3020 RMK AO2

FAA Disclaimer: The data displayed is for advisory purposes only and is not to be used for flight planning or operations.